createdAt,value
2022-09-05T00:02:01.494Z,100471.50
2022-09-05T00:04:28.592Z,100414.19
2022-09-05T00:07:36.044Z,100343.91
2022-09-05T00:10:07.168Z,100466.69
2022-09-05T00:12:36.216Z,100471.75
2022-09-05T00:15:16.218Z,100466.50
2022-09-05T00:23:13.495Z,100463.97
2022-09-05T00:24:28.564Z,100362.06
2022-09-05T00:24:42.164Z,100461.22
2022-09-05T00:27:23.059Z,100470.72
2022-09-05T00:31:08.617Z,100467.91
2022-09-05T00:33:17.239Z,100188.63
2022-09-05T00:35:51.040Z,100335.16
2022-09-05T00:38:36.444Z,100438.59
2022-09-05T00:41:09.326Z,100422.56
2022-09-05T00:43:42.744Z,100445.22
2022-09-05T00:46:22.505Z,100429.63
2022-09-05T00:49:17.410Z,100455.41
2022-09-05T00:52:12.977Z,100439.38
2022-09-05T00:55:07.738Z,100457.03
2022-09-05T00:57:56.199Z,100464.06
2022-09-05T01:00:44.524Z,100437.81
2022-09-05T01:03:30.160Z,100447.22
2022-09-05T01:06:15.972Z,100452.31
2022-09-05T01:08:50.119Z,100449.63
2022-09-05T01:11:47.805Z,100444.41
2022-09-05T01:14:48.462Z,100446.91
2022-09-05T01:17:21.183Z,100431.81
2022-09-05T01:20:18.584Z,100423.97
2022-09-05T01:23:09.156Z,100440.03
2022-09-05T01:25:55.106Z,100391.38
2022-09-05T01:29:16.373Z,100438.06
2022-09-05T01:31:43.481Z,100424.69
2022-09-05T01:34:32.390Z,100428.28
2022-09-05T01:37:26.557Z,100332.78
2022-09-05T01:40:25.125Z,100431.22
2022-09-05T01:43:10.705Z,100412.91
2022-09-05T01:46:11.877Z,100422.97
2022-09-05T01:49:07.659Z,100431.63
2022-09-05T01:52:05.423Z,100398.25
2022-09-05T01:54:44.505Z,100422.84
2022-09-05T01:57:19.731Z,100408.78
2022-09-05T01:59:54.048Z,100417.66
2022-09-05T02:02:50.814Z,100420.25
2022-09-05T02:05:48.462Z,100317.63
2022-09-05T02:08:16.390Z,100305.25
2022-09-05T02:11:13.382Z,100431.09
2022-09-05T02:13:57.075Z,100430.25
2022-09-05T02:16:39.203Z,100435.50
2022-09-05T02:19:31.719Z,100437.34
2022-09-05T02:22:10.637Z,100437.34
2022-09-05T02:24:58.489Z,100415.69
2022-09-05T02:28:05.113Z,100428.13
2022-09-05T02:31:00.350Z,100423.88
2022-09-05T02:33:53.365Z,100415.38
2022-09-05T02:36:38.620Z,100431.34
2022-09-05T02:45:02.201Z,100407.69
2022-09-05T02:45:10.843Z,100342.88
2022-09-05T02:46:18.194Z,100283.22
2022-09-05T02:50:00.198Z,100429.88
2022-09-05T02:57:27.516Z,100436.75
2022-09-05T02:57:34.043Z,100318.19
2022-09-05T02:58:09.100Z,100434.16
2022-09-05T03:00:44.782Z,100382.22
2022-09-05T03:03:17.769Z,100438.63
2022-09-05T03:06:35.110Z,100437.31
2022-09-05T03:09:21.801Z,100411.66
2022-09-05T03:12:28.369Z,100235.25
2022-09-05T03:15:23.583Z,100433.88
2022-09-05T03:18:20.111Z,100337.09
2022-09-05T03:21:19.102Z,100428.75
2022-09-05T03:24:22.683Z,100335.56
2022-09-05T03:27:01.834Z,100394.41
2022-09-05T03:29:58.511Z,100436.47
2022-09-05T03:32:43.066Z,100433.16
2022-09-05T03:35:44.137Z,100438.47
2022-09-05T03:38:31.146Z,100260.16
2022-09-05T03:41:24.081Z,100440.38
2022-09-05T03:44:00.989Z,100436.09
2022-09-05T03:46:42.827Z,100437.88
2022-09-05T03:51:11.940Z,100335.22
2022-09-05T03:57:06.281Z,100391.47
2022-09-05T03:57:27.375Z,100417.56
2022-09-05T03:59:13.383Z,100445.47
2022-09-05T04:07:48.151Z,100445.34
2022-09-05T04:08:18.932Z,100420.06
2022-09-05T04:08:49.434Z,100444.63
2022-09-05T04:11:42.180Z,100289.38
2022-09-05T04:14:42.591Z,100439.69
2022-09-05T04:17:40.365Z,100435.31
2022-09-05T04:20:43.987Z,100429.41
2022-09-05T04:23:13.945Z,100427.47
2022-09-05T04:26:11.606Z,100433.75
2022-09-05T04:28:49.977Z,100434.03
2022-09-05T04:31:20.919Z,100371.19
2022-09-05T04:33:53.753Z,100436.31
2022-09-05T04:36:28.848Z,100421.44
2022-09-05T04:39:20.100Z,100433.03
2022-09-05T04:41:53.771Z,100414.66
2022-09-05T04:44:29.721Z,100404.31
2022-09-05T04:47:08.168Z,100433.31
2022-09-05T04:49:44.316Z,100417.56
2022-09-05T04:52:31.829Z,100399.81
2022-09-05T04:55:02.342Z,100425.59
2022-09-05T04:57:37.014Z,100429.16
2022-09-05T05:05:58.241Z,100430.25
2022-09-05T05:06:15.297Z,100442.53
2022-09-05T05:06:42.336Z,100430.41
2022-09-05T05:09:06.931Z,100435.06
2022-09-05T05:17:40.367Z,100432.72
2022-09-05T05:18:06.722Z,100426.78
2022-09-05T05:18:39.797Z,100356.66
2022-09-05T05:21:18.238Z,100437.25
2022-09-05T05:23:55.632Z,100427.72
2022-09-05T05:26:41.435Z,100409.34
2022-09-05T05:29:19.400Z,100432.19
2022-09-05T05:31:49.918Z,100433.09
2022-09-05T05:34:29.214Z,100334.09
2022-09-05T05:37:03.339Z,100378.88
2022-09-05T05:39:33.023Z,100415.09
2022-09-05T05:42:19.421Z,100339.72
2022-09-05T05:44:57.261Z,100378.47
2022-09-05T05:47:31.643Z,100345.44
2022-09-05T05:50:01.321Z,100428.84
2022-09-05T05:52:31.023Z,100417.69
2022-09-05T05:55:51.670Z,100316.94
2022-09-05T05:58:32.749Z,100435.50
2022-09-05T06:01:31.674Z,100440.75
2022-09-05T06:04:32.405Z,100341.78
2022-09-05T06:07:26.863Z,100420.59
2022-09-05T06:14:55.643Z,100438.47
2022-09-05T06:15:03.670Z,100441.78
2022-09-05T06:16:53.506Z,100298.50
2022-09-05T06:21:40.911Z,100352.09
2022-09-05T06:23:02.073Z,100435.56
2022-09-05T06:25:44.218Z,100435.66
2022-09-05T06:28:25.946Z,100399.97
2022-09-05T06:31:31.444Z,100437.84
2022-09-05T06:34:32.939Z,100444.91
2022-09-05T06:37:39.325Z,100443.25
2022-09-05T06:40:42.331Z,100433.78
2022-09-05T06:43:33.260Z,100344.50
2022-09-05T06:46:54.503Z,100444.63
2022-09-05T06:49:42.814Z,100384.94
2022-09-05T06:52:46.445Z,100417.50
2022-09-05T06:55:43.077Z,100407.91
2022-09-05T06:58:29.167Z,100439.53
2022-09-05T07:00:59.235Z,100444.81
2022-09-05T07:04:33.365Z,100452.81
2022-09-05T07:07:11.591Z,100438.13
2022-09-05T07:09:52.663Z,100342.84
2022-09-05T07:12:31.002Z,100388.47
2022-09-05T07:15:08.937Z,100434.06
2022-09-05T07:18:06.527Z,100369.16
2022-09-05T07:21:16.717Z,100430.28
2022-09-05T07:24:07.032Z,100439.78
2022-09-05T07:26:52.290Z,100430.13
2022-09-05T07:29:23.224Z,100425.59
2022-09-05T07:31:55.569Z,100426.63
2022-09-05T07:34:32.243Z,100427.59
2022-09-05T07:37:16.286Z,100426.72
2022-09-05T07:39:53.807Z,100439.75
2022-09-05T07:42:30.393Z,100270.69
2022-09-05T07:45:06.558Z,100355.44
2022-09-05T07:47:38.340Z,100359.78
2022-09-05T07:51:07.697Z,100419.38
2022-09-05T07:56:47.245Z,100425.50
2022-09-05T07:57:01.960Z,100333.53
2022-09-05T07:58:52.867Z,100411.59
2022-09-05T08:01:22.663Z,100401.03
2022-09-05T08:03:56.090Z,100297.72
2022-09-05T08:06:46.429Z,100415.97
2022-09-05T08:10:06.220Z,100419.53
2022-09-05T08:12:16.089Z,100354.63
2022-09-05T08:14:52.937Z,100317.94
2022-09-05T08:17:27.478Z,100422.97
2022-09-05T08:20:10.111Z,100429.06
2022-09-05T08:22:52.621Z,100389.78
2022-09-05T08:25:36.257Z,100415.16
2022-09-05T08:28:39.645Z,100404.13
2022-09-05T08:31:20.696Z,100395.25
2022-09-05T08:33:53.268Z,100379.47
2022-09-05T08:36:40.487Z,100403.97
2022-09-05T08:39:11.698Z,100393.44
2022-09-05T08:41:56.113Z,100390.84
2022-09-05T08:46:39.703Z,100406.56
2022-09-05T08:47:45.556Z,100411.63
2022-09-05T08:50:20.980Z,100306.59
2022-09-05T08:53:28.151Z,100410.88
2022-09-05T08:56:06.552Z,100375.78
2022-09-05T08:58:49.906Z,100392.50
2022-09-05T09:02:04.379Z,100401.28
2022-09-05T09:05:01.374Z,100406.56
2022-09-05T09:07:50.772Z,100396.06
2022-09-05T09:10:46.593Z,100399.69
2022-09-05T09:13:35.167Z,100403.19
2022-09-05T09:16:39.843Z,100298.25
2022-09-05T09:19:17.836Z,100401.53
2022-09-05T09:22:14.782Z,100258.19
2022-09-05T09:25:11.256Z,100403.47
2022-09-05T09:28:43.706Z,100318.69
2022-09-05T09:30:43.690Z,100304.75
2022-09-05T09:33:20.681Z,100374.03
2022-09-05T09:36:07.959Z,100367.88
2022-09-05T09:38:41.351Z,100259.47
2022-09-05T09:41:29.927Z,100320.69
2022-09-05T09:44:15.704Z,100388.97
2022-09-05T09:46:45.630Z,100387.09
2022-09-05T09:49:46.492Z,100389.75
2022-09-05T09:52:35.857Z,100384.56
2022-09-05T09:55:24.705Z,100384.56
2022-09-05T09:58:15.909Z,100373.16
2022-09-05T10:00:55.315Z,100361.78
2022-09-05T10:08:02.232Z,100378.38
2022-09-05T10:10:53.994Z,100359.97
2022-09-05T10:11:35.126Z,100377.44
2022-09-05T10:14:49.232Z,100361.56
2022-09-05T10:17:29.257Z,100348.22
2022-09-05T10:20:10.302Z,100373.41
2022-09-05T10:22:52.031Z,100302.34
2022-09-05T10:25:36.979Z,100322.47
2022-09-05T10:28:05.408Z,100377.53
2022-09-05T10:32:13.588Z,100376.72
2022-09-05T10:35:15.176Z,100365.47
2022-09-05T10:37:05.383Z,100340.78
2022-09-05T10:39:35.590Z,100367.06
2022-09-05T10:42:09.075Z,100252.38
2022-09-05T10:44:46.680Z,100323.34
2022-09-05T10:47:38.577Z,100366.25
2022-09-05T10:50:33.869Z,100370.66
2022-09-05T10:53:28.386Z,100365.38
2022-09-05T10:56:38.340Z,100365.41
2022-09-05T11:02:18.723Z,100268.09
2022-09-05T11:02:34.731Z,100281.28
2022-09-05T11:05:23.221Z,100273.50
2022-09-05T11:08:08.401Z,100370.75
2022-09-05T11:11:04.664Z,100340.25
2022-09-05T11:13:47.760Z,100351.63
2022-09-05T11:16:27.568Z,100303.66
2022-09-05T11:19:04.151Z,100333.59
2022-09-05T11:22:12.092Z,100350.41
2022-09-05T11:24:58.198Z,100158.91
2022-09-05T11:27:44.317Z,100239.53
2022-09-05T11:30:31.039Z,100333.13
2022-09-05T11:36:56.750Z,100326.97
2022-09-05T11:39:52.305Z,100339.91
2022-09-05T11:40:04.114Z,100335.69
2022-09-05T11:42:30.567Z,100318.03
2022-09-05T11:45:22.409Z,100252.28
2022-09-05T11:48:28.345Z,100337.94
2022-09-05T11:51:33.483Z,100330.91
2022-09-05T11:54:30.510Z,100334.22
2022-09-05T11:57:33.504Z,100305.31
2022-09-05T12:00:32.813Z,100323.56
2022-09-05T12:03:57.479Z,100323.41
2022-09-05T12:06:57.564Z,100331.19
2022-09-05T12:09:54.457Z,100325.00
2022-09-05T12:12:41.626Z,100302.97
2022-09-05T12:15:22.494Z,100323.09
2022-09-05T12:18:32.761Z,100315.19
2022-09-05T12:21:12.430Z,100210.97
2022-09-05T12:25:17.204Z,100325.59
2022-09-05T12:27:41.953Z,100300.50
2022-09-05T12:30:16.251Z,100304.94
2022-09-05T12:36:01.368Z,100292.00
2022-09-05T12:36:13.059Z,100070.16
2022-09-05T12:41:33.148Z,100269.75
2022-09-05T12:42:14.970Z,100227.00
2022-09-05T12:44:46.663Z,100271.78
2022-09-05T12:47:21.269Z,100238.44
2022-09-05T12:50:03.566Z,100271.72
2022-09-05T12:52:44.787Z,100196.44
2022-09-05T12:55:40.806Z,100270.03
2022-09-05T13:03:02.646Z,100279.59
2022-09-05T13:03:05.547Z,100133.41
2022-09-05T13:04:19.958Z,100123.84
2022-09-05T13:06:58.702Z,100261.13
2022-09-05T13:09:30.810Z,100280.41
2022-09-05T13:14:47.169Z,100276.84
2022-09-05T13:15:39.336Z,100275.78
2022-09-05T13:18:13.322Z,100277.44
2022-09-05T13:21:08.629Z,100258.97
2022-09-05T13:24:01.663Z,100278.97
2022-09-05T13:26:40.153Z,100221.81
2022-09-05T13:29:13.379Z,100202.59
2022-09-05T13:37:55.563Z,100290.00
2022-09-05T13:37:59.206Z,100272.31
2022-09-05T13:38:13.077Z,100291.63
2022-09-05T13:40:47.397Z,100291.34
2022-09-05T13:43:21.942Z,100288.59
2022-09-05T13:46:15.665Z,100195.03
2022-09-05T13:52:20.529Z,100252.00
2022-09-05T13:55:05.354Z,100209.94
2022-09-05T13:57:38.949Z,100259.09
2022-09-05T14:00:18.753Z,100277.44
2022-09-05T14:06:46.057Z,100214.56
2022-09-05T14:09:51.572Z,100279.59
2022-09-05T14:12:29.585Z,100273.63
2022-09-05T14:15:37.767Z,100274.53
2022-09-05T14:19:01.814Z,100259.66
2022-09-05T14:21:31.730Z,100194.78
2022-09-05T14:24:03.459Z,100246.50
2022-09-05T14:26:42.660Z,100251.84
2022-09-05T14:29:14.246Z,100270.13
2022-09-05T14:37:34.618Z,100213.41
2022-09-05T14:38:01.568Z,100271.03
2022-09-05T14:38:11.553Z,100230.75
2022-09-05T14:41:29.063Z,100263.22
2022-09-05T14:44:16.433Z,100263.13
2022-09-05T14:47:35.042Z,100255.31
2022-09-05T14:50:04.207Z,100260.59
2022-09-05T14:52:37.749Z,100255.09
2022-09-05T15:02:44.208Z,100147.47
2022-09-05T15:02:54.897Z,100202.59
2022-09-05T15:06:35.940Z,100225.25
2022-09-05T15:12:15.014Z,100266.34
2022-09-05T15:12:20.231Z,100226.13
2022-09-05T15:14:50.381Z,100252.34
2022-09-05T15:17:23.724Z,100262.00
2022-09-05T15:20:05.490Z,100235.78
2022-09-05T15:22:37.635Z,100249.81
2022-09-05T15:25:17.082Z,100103.78
2022-09-05T15:27:46.475Z,100254.28
2022-09-05T15:30:16.619Z,100255.16
2022-09-05T15:32:48.498Z,100159.72
2022-09-05T15:35:35.635Z,100249.09
2022-09-05T15:38:27.065Z,100259.59
2022-09-05T15:41:17.378Z,100193.03
2022-09-05T15:44:04.727Z,100233.28
2022-09-05T15:46:57.352Z,100247.16
2022-09-05T15:49:40.998Z,100262.09
2022-09-05T15:52:17.143Z,100265.31
2022-09-05T15:55:02.913Z,100250.44
2022-09-05T15:57:41.555Z,100153.22
2022-09-05T16:00:12.050Z,100181.81
2022-09-05T16:02:59.620Z,100240.50
2022-09-05T16:10:36.221Z,100215.03
2022-09-05T16:10:59.107Z,100254.50
2022-09-05T16:16:20.128Z,100266.72
2022-09-05T16:23:17.215Z,100256.13
2022-09-05T16:23:23.944Z,100255.25
2022-09-05T16:23:46.806Z,100213.25
2022-09-05T16:26:25.402Z,100248.19
2022-09-05T16:28:52.993Z,100271.75
2022-09-05T16:31:45.720Z,100269.25
2022-09-05T16:34:30.893Z,100265.66
2022-09-05T16:37:20.042Z,100282.22
2022-09-05T16:39:54.126Z,100257.66
2022-09-05T16:42:46.670Z,100201.69
2022-09-05T16:45:39.649Z,100288.34
2022-09-05T16:48:46.925Z,100284.88
2022-09-05T16:51:51.435Z,100219.91
2022-09-05T16:54:40.352Z,100289.16
2022-09-05T16:57:17.798Z,100298.59
2022-09-05T16:59:46.460Z,100285.50
2022-09-05T17:02:44.373Z,100290.72
2022-09-05T17:05:13.427Z,100291.44
2022-09-05T17:08:09.751Z,100281.78
2022-09-05T17:10:57.771Z,100291.38
2022-09-05T17:13:43.429Z,100230.69
2022-09-05T17:16:19.529Z,100306.06
2022-09-05T17:18:51.258Z,100300.75
2022-09-05T17:23:59.511Z,100273.50
2022-09-05T17:29:16.696Z,100301.47
2022-09-05T17:29:42.578Z,100304.88
2022-09-05T17:32:56.502Z,100312.47
2022-09-05T17:35:32.659Z,100310.69
2022-09-05T17:38:14.990Z,100258.84
2022-09-05T17:41:12.740Z,100314.78
2022-09-05T17:43:41.598Z,100313.09
2022-09-05T17:46:20.448Z,100321.78
2022-09-05T17:48:52.818Z,100320.84
2022-09-05T17:51:34.737Z,100324.44
2022-09-05T17:54:16.082Z,100332.22
2022-09-05T17:56:47.405Z,100245.56
2022-09-05T17:59:17.488Z,100321.75
2022-09-05T18:02:03.493Z,100326.13
2022-09-05T18:04:51.065Z,100325.03
2022-09-05T18:07:28.703Z,100329.47
2022-09-05T18:10:14.810Z,100305.78
2022-09-05T18:13:12.415Z,100295.22
2022-09-05T18:15:36.422Z,100240.00
2022-09-05T18:18:08.786Z,100331.06
2022-09-05T18:21:21.203Z,100335.47
2022-09-05T18:24:05.005Z,100326.00
2022-09-05T18:26:42.910Z,100331.06
2022-09-05T18:29:28.743Z,100191.00
2022-09-05T18:33:55.576Z,100324.38
2022-09-05T18:35:54.277Z,100250.69
2022-09-05T18:38:50.037Z,100151.66
2022-09-05T18:41:19.195Z,100325.09
2022-09-05T18:44:01.635Z,100326.00
2022-09-05T18:46:51.800Z,100308.56
2022-09-05T18:50:24.687Z,100310.34
2022-09-05T18:52:34.040Z,100244.31
2022-09-05T18:56:10.848Z,100299.72
2022-09-05T18:58:26.919Z,100323.50
2022-09-05T19:00:56.072Z,100296.22
2022-09-05T19:03:29.027Z,100269.97
2022-09-05T19:06:34.634Z,100315.63
2022-09-05T19:08:53.991Z,100299.88
2022-09-05T19:11:30.738Z,100297.25
2022-09-05T19:14:18.376Z,100270.13
2022-09-05T19:17:02.559Z,100293.88
2022-09-05T19:19:31.568Z,100231.72
2022-09-05T19:23:06.683Z,100241.38
2022-09-05T19:24:49.487Z,100211.56
2022-09-05T19:29:56.305Z,100313.09
2022-09-05T19:36:48.761Z,100306.16
2022-09-05T19:36:55.834Z,100301.88
2022-09-05T19:37:07.382Z,100181.91
2022-09-05T19:42:00.341Z,100305.25
2022-09-05T19:47:27.577Z,100309.66
2022-09-05T19:47:34.474Z,100140.50
2022-09-05T19:48:07.774Z,100247.19
2022-09-05T19:50:28.401Z,100304.59
2022-09-05T19:53:07.686Z,100286.88
2022-09-05T19:55:37.172Z,100270.22
2022-09-05T19:58:19.076Z,100285.97
2022-09-05T20:01:03.713Z,100198.31
2022-09-05T20:03:39.955Z,100299.78
2022-09-05T20:06:30.301Z,100244.75
2022-09-05T20:09:19.206Z,100300.84
2022-09-05T20:12:15.895Z,100295.56
2022-09-05T20:14:43.084Z,100212.16
2022-09-05T20:17:26.188Z,100301.50
2022-09-05T20:20:12.408Z,100268.28
2022-09-05T20:22:49.509Z,100269.84
2022-09-05T20:25:41.682Z,100298.09
2022-09-05T20:28:35.789Z,100283.22
2022-09-05T20:31:08.523Z,100301.34
2022-09-05T20:33:48.180Z,100289.25
2022-09-05T20:43:08.493Z,100215.53
2022-09-05T20:43:18.213Z,100239.28
2022-09-05T20:43:35.846Z,100254.88
2022-09-05T20:45:52.039Z,100283.03
2022-09-05T20:54:13.408Z,100143.41
2022-09-05T20:54:22.575Z,100203.00
2022-09-05T20:54:31.630Z,100279.03
2022-09-05T20:56:59.844Z,100299.09
2022-09-05T20:59:31.881Z,100290.41
2022-09-05T21:02:02.327Z,100269.13
2022-09-05T21:04:35.337Z,100195.69
2022-09-05T21:07:21.826Z,100289.47
2022-09-05T21:09:53.158Z,100291.97
2022-09-05T21:12:29.380Z,100291.13
2022-09-05T21:15:02.048Z,100280.69
2022-09-05T21:17:31.464Z,100292.84
2022-09-05T21:20:00.550Z,100287.63
2022-09-05T21:22:43.507Z,100108.94
2022-09-05T21:25:20.212Z,100286.81
2022-09-05T21:28:20.570Z,100274.47
2022-09-05T21:30:47.975Z,100291.88
2022-09-05T21:33:24.209Z,100290.13
2022-09-05T21:36:04.760Z,100286.63
2022-09-05T21:38:43.239Z,100185.81
2022-09-05T21:41:10.693Z,100223.41
2022-09-05T21:47:33.203Z,100285.69
2022-09-05T21:47:42.805Z,100270.81
2022-09-05T21:49:21.988Z,100288.22
2022-09-05T21:51:53.309Z,100170.94
2022-09-05T21:59:20.624Z,100152.56
2022-09-05T21:59:22.002Z,100272.63
2022-09-05T22:00:11.211Z,100162.84
2022-09-05T22:02:49.446Z,100259.53
2022-09-05T22:05:17.263Z,100266.44
2022-09-05T22:07:44.325Z,100238.47
2022-09-05T22:10:11.758Z,100249.88
2022-09-05T22:12:39.337Z,100255.19
2022-09-05T22:15:26.604Z,100267.47
2022-09-05T22:18:14.743Z,100270.19
2022-09-05T22:20:46.218Z,100253.53
2022-09-05T22:23:20.697Z,100254.31
2022-09-05T22:25:47.951Z,100254.31
2022-09-05T22:28:21.579Z,100256.94
2022-09-05T22:30:56.355Z,99975.72
2022-09-05T22:33:25.201Z,100236.88
2022-09-05T22:35:52.297Z,100231.66
2022-09-05T22:38:20.166Z,100151.88
2022-09-05T22:40:47.996Z,100261.41
2022-09-05T22:43:17.007Z,100235.16
2022-09-05T22:45:44.041Z,100248.25
2022-09-05T22:48:13.716Z,100253.53
2022-09-05T22:50:42.274Z,100174.66
2022-09-05T22:53:10.010Z,100260.41
2022-09-05T22:55:38.935Z,100239.47
2022-09-05T22:58:08.100Z,100251.63
2022-09-05T23:00:36.376Z,100191.81
2022-09-05T23:03:06.080Z,100234.81
2022-09-05T23:05:34.171Z,100083.97
2022-09-05T23:08:03.531Z,100261.84
2022-09-05T23:10:31.685Z,100257.50
2022-09-05T23:12:58.979Z,100235.56
2022-09-05T23:15:26.850Z,100265.31
2022-09-05T23:17:55.343Z,100249.56
2022-09-05T23:20:25.555Z,100253.91
2022-09-05T23:22:52.868Z,100264.41
2022-09-05T23:25:21.566Z,100152.16
2022-09-05T23:27:49.354Z,100253.69
2022-09-05T23:30:17.011Z,100244.16
2022-09-05T23:32:48.923Z,100274.84
2022-09-05T23:35:17.024Z,100267.72
2022-09-05T23:37:45.413Z,100224.84
2022-09-05T23:40:17.981Z,100276.38
2022-09-05T23:42:52.906Z,100233.56
2022-09-05T23:45:20.481Z,100220.34
2022-09-05T23:47:47.696Z,100271.03
2022-09-05T23:50:15.655Z,100249.09
2022-09-05T23:52:43.903Z,100259.50
2022-09-05T23:55:15.911Z,100157.09
2022-09-05T23:57:43.562Z,100242.03
